Time;durP1;ratioP1;P1;durP2;ratioP2;P2;SDS_P1;SDS_P2;PMS_P1;PMS_P2;Temp;Humidity;BMP_temperature;BMP_pressure;BME280_temperature;BME280_humidity;BME280_pressure;Samples;Min_cycle;Max_cycle;Signal;HPM_P1;HPM_P2
2021/07/27 00:00:07;;;;;;;8.23;5.40;;;;;;;;;;3576372;40;20274;-59
2021/07/27 00:02:36;;;;;;;11.35;5.38;;;;;;;;;;3577322;40;20032;-59
2021/07/27 00:05:01;;;;;;;10.77;5.37;;;;;;;;;;3576850;40;20100;-59
2021/07/27 00:07:26;;;;;;;7.43;5.00;;;;;;;;;;3576013;40;20270;-59
2021/07/27 00:09:51;;;;;;;8.53;5.27;;;;;;;;;;3575774;40;20290;-59
2021/07/27 00:12:17;;;;;;;11.53;5.43;;;;;;;;;;3576950;40;21016;-65
2021/07/27 00:14:42;;;;;;;10.67;5.53;;;;;;;;;;3574394;40;20086;-66
2021/07/27 00:17:07;;;;;;;8.10;5.00;;;;;;;;;;3577480;40;20036;-67
2021/07/27 00:19:33;;;;;;;6.00;4.87;;;;;;;;;;3575741;40;20468;-66
2021/07/27 00:21:58;;;;;;;10.27;5.10;;;;;;;;;;3576460;40;20064;-66
2021/07/27 00:24:26;;;;;;;7.07;4.50;;;;;;;;;;3576436;40;20251;-66
2021/07/27 00:26:51;;;;;;;7.50;4.63;;;;;;;;;;3576045;40;20028;-66
2021/07/27 00:29:17;;;;;;;10.23;5.23;;;;;;;;;;3575850;40;20033;-66
2021/07/27 00:31:42;;;;;;;9.40;5.55;;;;;;;;;;3575551;40;20121;-67
2021/07/27 00:34:07;;;;;;;12.30;5.63;;;;;;;;;;3577842;40;20697;-66
2021/07/27 00:36:32;;;;;;;10.93;5.27;;;;;;;;;;3578354;40;20040;-67
2021/07/27 00:38:58;;;;;;;8.27;4.97;;;;;;;;;;3576214;40;20054;-67
2021/07/27 00:41:23;;;;;;;8.07;5.40;;;;;;;;;;3577993;40;20021;-67
2021/07/27 00:43:48;;;;;;;8.03;5.37;;;;;;;;;;3574486;40;20267;-66
2021/07/27 00:46:13;;;;;;;6.53;5.10;;;;;;;;;;3576734;40;20048;-66
2021/07/27 00:48:39;;;;;;;10.33;4.87;;;;;;;;;;3575757;40;20040;-67
2021/07/27 00:51:04;;;;;;;8.00;4.83;;;;;;;;;;3577350;40;20261;-66
2021/07/27 00:53:29;;;;;;;8.57;5.30;;;;;;;;;;3577775;40;20027;-66
2021/07/27 00:55:54;;;;;;;7.95;5.10;;;;;;;;;;3575438;40;20240;-67
2021/07/27 00:58:20;;;;;;;9.67;5.37;;;;;;;;;;3574619;40;20145;-67
2021/07/27 01:00:45;;;;;;;6.93;5.05;;;;;;;;;;3574949;40;20476;-66
2021/07/27 01:03:10;;;;;;;12.10;5.50;;;;;;;;;;3575980;40;20053;-66
2021/07/27 01:05:35;;;;;;;9.27;5.60;;;;;;;;;;3575677;40;20409;-67
2021/07/27 01:08:01;;;;;;;9.03;5.37;;;;;;;;;;3575627;40;20040;-66
2021/07/27 01:10:26;;;;;;;10.65;5.00;;;;;;;;;;3574598;40;20025;-66
2021/07/27 01:12:51;;;;;;;12.37;5.17;;;;;;;;;;3577479;40;20032;-66
2021/07/27 01:15:16;;;;;;;14.10;5.10;;;;;;;;;;3579693;40;20128;-66
2021/07/27 01:17:42;;;;;;;10.52;4.93;;;;;;;;;;3574304;40;20064;-66
2021/07/27 01:44:04;;;;;;;12.60;5.23;;;;;;;;;;3576847;40;20690;-66
2021/07/27 01:46:29;;;;;;;7.70;5.17;;;;;;;;;;3575554;40;20024;-66
2021/07/27 01:48:54;;;;;;;9.30;5.28;;;;;;;;;;3574640;40;20815;-66
2021/07/27 01:51:19;;;;;;;11.33;5.27;;;;;;;;;;3576493;40;20773;-66
2021/07/27 01:53:49;;;;;;;11.30;5.63;;;;;;;;;;3575745;40;20133;-66
2021/07/27 01:56:14;;;;;;;11.00;5.07;;;;;;;;;;3575991;40;20593;-66
2021/07/27 01:58:40;;;;;;;8.07;4.87;;;;;;;;;;3576160;40;20095;-66
2021/07/27 02:01:05;;;;;;;11.60;5.47;;;;;;;;;;3578072;40;20299;-66
2021/07/27 02:03:30;;;;;;;8.70;5.55;;;;;;;;;;3575694;40;20032;-66
2021/07/27 02:05:55;;;;;;;9.27;5.10;;;;;;;;;;3575330;40;20151;-66
2021/07/27 02:08:21;;;;;;;8.80;4.70;;;;;;;;;;3579675;40;20438;-66
2021/07/27 02:10:51;;;;;;;6.20;4.47;;;;;;;;;;3575131;40;20283;-66
2021/07/27 02:13:25;;;;;;;10.13;5.32;;;;;;;;;;3576253;40;20040;-67
2021/07/27 02:15:51;;;;;;;7.63;5.20;;;;;;;;;;3576617;40;20555;-66
2021/07/27 02:18:16;;;;;;;11.57;5.53;;;;;;;;;;3575273;40;20287;-67
2021/07/27 02:20:41;;;;;;;8.53;5.23;;;;;;;;;;3576222;40;20077;-67
2021/07/27 02:23:06;;;;;;;11.33;4.93;;;;;;;;;;3578710;40;20032;-67
2021/07/27 02:25:31;;;;;;;7.93;5.40;;;;;;;;;;3576987;40;20032;-67
2021/07/27 02:27:57;;;;;;;7.67;5.13;;;;;;;;;;3574227;40;20677;-67
2021/07/27 02:30:22;;;;;;;8.03;5.13;;;;;;;;;;3580452;40;20650;-67
2021/07/27 02:32:47;;;;;;;7.53;5.10;;;;;;;;;;3576783;40;20033;-67
2021/07/27 02:35:12;;;;;;;7.60;5.47;;;;;;;;;;3575986;40;20275;-67
2021/07/27 02:37:39;;;;;;;6.90;4.97;;;;;;;;;;3576446;40;20110;-67
2021/07/27 02:40:04;;;;;;;11.38;5.47;;;;;;;;;;3577419;40;20029;-67
2021/07/27 02:42:29;;;;;;;7.27;5.17;;;;;;;;;;3578016;40;20100;-67
2021/07/27 02:44:54;;;;;;;7.63;5.03;;;;;;;;;;3576999;40;20033;-67
2021/07/27 02:47:20;;;;;;;9.45;5.13;;;;;;;;;;3577842;40;20088;-67
2021/07/27 02:49:45;;;;;;;8.37;5.30;;;;;;;;;;3576773;40;20036;-66
2021/07/27 02:52:10;;;;;;;8.97;5.30;;;;;;;;;;3575865;40;20016;-67
2021/07/27 02:54:35;;;;;;;8.80;5.20;;;;;;;;;;3576588;40;20037;-66
2021/07/27 02:57:01;;;;;;;8.03;5.20;;;;;;;;;;3576170;40;20031;-67
2021/07/27 02:59:26;;;;;;;7.93;5.85;;;;;;;;;;3574389;40;20630;-67
2021/07/27 03:01:52;;;;;;;7.27;5.20;;;;;;;;;;3575359;40;20025;-66
2021/07/27 03:04:17;;;;;;;9.60;5.77;;;;;;;;;;3574308;40;20046;-67
2021/07/27 03:06:45;;;;;;;9.23;6.07;;;;;;;;;;3575445;40;20025;-66
2021/07/27 03:09:15;;;;;;;10.05;5.38;;;;;;;;;;3575171;40;20061;-67
2021/07/27 03:11:40;;;;;;;8.93;5.90;;;;;;;;;;3578436;40;20029;-67
2021/07/27 03:14:05;;;;;;;13.03;5.93;;;;;;;;;;3578203;40;20072;-67
2021/07/27 03:16:30;;;;;;;7.60;5.17;;;;;;;;;;3575009;40;20101;-67
2021/07/27 03:18:56;;;;;;;12.80;5.50;;;;;;;;;;3576687;40;20036;-67
2021/07/27 03:21:22;;;;;;;9.68;5.60;;;;;;;;;;3576287;40;20044;-67
2021/07/27 03:23:47;;;;;;;11.57;6.05;;;;;;;;;;3575002;40;20064;-67
2021/07/27 03:26:12;;;;;;;10.43;5.77;;;;;;;;;;3576895;40;20037;-67
2021/07/27 03:28:39;;;;;;;9.07;5.78;;;;;;;;;;3575892;40;20719;-66
2021/07/27 03:31:04;;;;;;;12.98;6.47;;;;;;;;;;3578171;40;20630;-67
2021/07/27 03:33:29;;;;;;;8.83;6.10;;;;;;;;;;3576499;40;20110;-66
2021/07/27 03:35:54;;;;;;;9.90;5.50;;;;;;;;;;3574402;40;20033;-66
2021/07/27 03:38:20;;;;;;;7.83;5.63;;;;;;;;;;3576717;40;20302;-67
2021/07/27 03:40:45;;;;;;;12.75;6.05;;;;;;;;;;3577781;40;20405;-67
2021/07/27 03:43:10;;;;;;;8.70;6.03;;;;;;;;;;3576270;40;20024;-66
2021/07/27 03:45:35;;;;;;;8.70;6.13;;;;;;;;;;3574857;40;20965;-67
2021/07/27 03:48:01;;;;;;;11.37;6.17;;;;;;;;;;3575079;40;20040;-66
2021/07/27 03:50:26;;;;;;;10.13;5.95;;;;;;;;;;3574647;40;20036;-67
2021/07/27 03:52:51;;;;;;;8.90;6.47;;;;;;;;;;3577652;40;20091;-67
2021/07/27 03:55:16;;;;;;;13.13;6.60;;;;;;;;;;3574760;40;20541;-67
2021/07/27 03:57:42;;;;;;;12.37;6.03;;;;;;;;;;3577217;40;20029;-66
2021/07/27 04:00:07;;;;;;;9.20;6.20;;;;;;;;;;3567030;40;20033;-66
2021/07/27 04:02:32;;;;;;;10.73;6.75;;;;;;;;;;3576816;40;20332;-66
2021/07/27 04:04:58;;;;;;;9.15;6.40;;;;;;;;;;3575516;40;20442;-67
2021/07/27 04:07:23;;;;;;;10.60;6.40;;;;;;;;;;3575781;40;20389;-67
2021/07/27 04:09:48;;;;;;;11.17;5.67;;;;;;;;;;3577044;40;20073;-67
2021/07/27 04:12:13;;;;;;;15.70;6.10;;;;;;;;;;3578001;40;20660;-67
2021/07/27 04:14:39;;;;;;;10.50;5.17;;;;;;;;;;3573849;40;20045;-66
2021/07/27 04:17:04;;;;;;;11.27;5.57;;;;;;;;;;3575270;40;20053;-67
2021/07/27 04:19:29;;;;;;;9.07;5.80;;;;;;;;;;3576056;40;20033;-66
2021/07/27 04:21:54;;;;;;;11.13;5.90;;;;;;;;;;3576191;40;20044;-67
2021/07/27 04:24:20;;;;;;;8.15;5.80;;;;;;;;;;3576019;40;20032;-67
2021/07/27 04:26:45;;;;;;;8.37;5.77;;;;;;;;;;3576310;40;20141;-67
2021/07/27 04:29:10;;;;;;;14.77;6.03;;;;;;;;;;3574310;40;20291;-66
2021/07/27 04:31:35;;;;;;;10.93;5.97;;;;;;;;;;3577550;40;20055;-66
2021/07/27 04:34:00;;;;;;;11.67;5.57;;;;;;;;;;3575593;40;20033;-66
2021/07/27 04:36:26;;;;;;;10.43;5.50;;;;;;;;;;3577423;40;20044;-66
2021/07/27 04:38:51;;;;;;;7.60;5.53;;;;;;;;;;3577792;40;20662;-66
2021/07/27 04:41:17;;;;;;;10.87;5.70;;;;;;;;;;3575158;40;20056;-66
2021/07/27 04:43:42;;;;;;;11.68;5.30;;;;;;;;;;3574514;40;20029;-67
2021/07/27 04:46:07;;;;;;;9.33;5.47;;;;;;;;;;3579917;40;20472;-66
2021/07/27 04:48:33;;;;;;;10.98;5.93;;;;;;;;;;3577595;40;20021;-66
2021/07/27 04:50:58;;;;;;;8.82;5.63;;;;;;;;;;3577320;40;20430;-66
2021/07/27 04:53:24;;;;;;;9.27;5.37;;;;;;;;;;3576221;40;20053;-66
2021/07/27 04:55:49;;;;;;;11.60;5.63;;;;;;;;;;3576212;40;20068;-67
2021/07/27 04:58:15;;;;;;;11.63;5.50;;;;;;;;;;3577556;40;20418;-66
2021/07/27 05:00:40;;;;;;;15.27;5.27;;;;;;;;;;3578537;40;20069;-67
2021/07/27 05:03:05;;;;;;;16.90;5.40;;;;;;;;;;3575907;40;20675;-66
2021/07/27 05:05:30;;;;;;;8.73;4.93;;;;;;;;;;3577643;40;20395;-67
2021/07/27 05:07:56;;;;;;;13.37;5.57;;;;;;;;;;3579648;40;20024;-66
2021/07/27 05:10:21;;;;;;;10.63;5.50;;;;;;;;;;3578455;40;20025;-66
2021/07/27 05:12:46;;;;;;;8.07;5.13;;;;;;;;;;3578068;40;20509;-66
2021/07/27 05:15:11;;;;;;;11.03;5.27;;;;;;;;;;3576349;40;20041;-66
2021/07/27 05:17:37;;;;;;;7.60;5.37;;;;;;;;;;3579546;40;20018;-67
2021/07/27 05:20:02;;;;;;;11.57;5.37;;;;;;;;;;3577020;40;21064;-66
2021/07/27 05:22:27;;;;;;;6.75;5.05;;;;;;;;;;3579471;40;20332;-59
2021/07/27 05:24:52;;;;;;;8.27;5.03;;;;;;;;;;3573931;40;20073;-59
2021/07/27 05:27:18;;;;;;;8.93;4.93;;;;;;;;;;3576951;40;20530;-59
2021/07/27 05:29:43;;;;;;;9.03;4.70;;;;;;;;;;3578266;40;20365;-59
2021/07/27 05:32:08;;;;;;;8.02;4.47;;;;;;;;;;3576838;40;20756;-59
2021/07/27 05:34:33;;;;;;;9.33;5.23;;;;;;;;;;3578644;40;20041;-59
2021/07/27 05:36:59;;;;;;;8.30;5.00;;;;;;;;;;3579783;40;20501;-59
2021/07/27 05:39:24;;;;;;;12.02;4.88;;;;;;;;;;3576907;40;20275;-59
2021/07/27 05:41:49;;;;;;;12.67;4.80;;;;;;;;;;3579096;40;20039;-59
2021/07/27 05:44:14;;;;;;;10.57;5.10;;;;;;;;;;3577901;40;20667;-59
2021/07/27 05:46:40;;;;;;;11.60;5.10;;;;;;;;;;3577299;40;20698;-59
2021/07/27 05:49:09;;;;;;;13.97;5.53;;;;;;;;;;3576138;40;20036;-59
2021/07/27 05:51:34;;;;;;;10.98;4.43;;;;;;;;;;3578650;40;20031;-59
2021/07/27 05:53:59;;;;;;;11.10;5.43;;;;;;;;;;3574412;40;20077;-59
2021/07/27 05:56:24;;;;;;;15.37;6.37;;;;;;;;;;3579213;40;20115;-59
2021/07/27 05:58:49;;;;;;;11.03;4.90;;;;;;;;;;3577581;40;20062;-59
2021/07/27 06:01:15;;;;;;;8.13;4.50;;;;;;;;;;3577898;40;20968;-59
2021/07/27 06:03:40;;;;;;;17.10;5.50;;;;;;;;;;3577232;40;20031;-59
2021/07/27 06:06:05;;;;;;;9.30;4.33;;;;;;;;;;3578640;40;20669;-59
2021/07/27 06:08:30;;;;;;;9.13;4.73;;;;;;;;;;3576284;40;20304;-59
2021/07/27 06:10:56;;;;;;;6.60;4.17;;;;;;;;;;3577214;40;20058;-59
2021/07/27 06:13:21;;;;;;;6.63;4.07;;;;;;;;;;3576954;40;20274;-59
2021/07/27 06:15:46;;;;;;;8.53;4.33;;;;;;;;;;3577705;40;20707;-59
2021/07/27 06:18:11;;;;;;;6.03;4.23;;;;;;;;;;3578072;40;20302;-59
2021/07/27 06:20:37;;;;;;;12.00;4.40;;;;;;;;;;3575645;40;20033;-59
2021/07/27 06:23:02;;;;;;;13.90;4.90;;;;;;;;;;3578444;40;20100;-59
2021/07/27 06:25:27;;;;;;;8.50;4.37;;;;;;;;;;3576773;40;20587;-59
2021/07/27 06:27:52;;;;;;;8.50;3.97;;;;;;;;;;3578537;40;20036;-59
2021/07/27 06:30:17;;;;;;;5.57;3.97;;;;;;;;;;3572850;40;20052;-59
2021/07/27 06:32:43;;;;;;;12.30;4.40;;;;;;;;;;3576829;40;20352;-59
2021/07/27 06:35:08;;;;;;;10.13;4.40;;;;;;;;;;3578078;40;20028;-59
2021/07/27 06:37:33;;;;;;;8.23;3.95;;;;;;;;;;3578223;40;20025;-59
2021/07/27 06:39:58;;;;;;;6.13;3.87;;;;;;;;;;3577206;40;20041;-59
2021/07/27 06:42:23;;;;;;;6.50;3.80;;;;;;;;;;3580379;40;20028;-59
2021/07/27 06:44:49;;;;;;;14.60;4.57;;;;;;;;;;3576971;40;20029;-59
2021/07/27 06:47:14;;;;;;;8.03;4.53;;;;;;;;;;3577884;40;20040;-59
2021/07/27 06:49:39;;;;;;;7.43;3.33;;;;;;;;;;3579134;40;20365;-59
2021/07/27 06:52:04;;;;;;;6.63;3.57;;;;;;;;;;3578041;40;20040;-59
2021/07/27 06:54:29;;;;;;;9.67;3.70;;;;;;;;;;3576134;40;20845;-60
2021/07/27 06:56:55;;;;;;;14.80;4.10;;;;;;;;;;3578523;40;20279;-59
2021/07/27 06:59:22;;;;;;;7.50;3.65;;;;;;;;;;3578922;40;20057;-59
2021/07/27 07:01:48;;;;;;;6.10;3.70;;;;;;;;;;3578649;40;20017;-59
2021/07/27 07:04:13;;;;;;;10.87;3.97;;;;;;;;;;3578848;40;20036;-59
2021/07/27 07:06:38;;;;;;;13.43;4.30;;;;;;;;;;3576283;40;20132;-59
2021/07/27 07:09:03;;;;;;;9.23;3.73;;;;;;;;;;3577212;40;20069;-60
2021/07/27 07:11:28;;;;;;;8.20;3.93;;;;;;;;;;3577589;40;20590;-60
2021/07/27 07:13:54;;;;;;;6.57;4.03;;;;;;;;;;3576687;40;20032;-60
2021/07/27 07:16:19;;;;;;;8.02;3.53;;;;;;;;;;3577137;40;20493;-60
2021/07/27 07:18:44;;;;;;;5.63;3.10;;;;;;;;;;3575416;40;20025;-59
2021/07/27 07:21:10;;;;;;;7.20;3.63;;;;;;;;;;3577605;40;20032;-64
2021/07/27 07:23:35;;;;;;;13.73;3.80;;;;;;;;;;3574825;40;20041;-62
2021/07/27 07:26:00;;;;;;;9.37;3.30;;;;;;;;;;3576054;40;20025;-63
2021/07/27 07:28:25;;;;;;;9.00;6.03;;;;;;;;;;3574566;40;20036;-62
2021/07/27 07:30:50;;;;;;;10.32;3.95;;;;;;;;;;3575709;40;20063;-62
2021/07/27 07:33:16;;;;;;;5.33;3.67;;;;;;;;;;3580071;40;20071;-62
2021/07/27 07:35:41;;;;;;;8.30;3.40;;;;;;;;;;3578027;40;20040;-62
2021/07/27 07:38:06;;;;;;;5.47;3.37;;;;;;;;;;3574505;40;20040;-62
2021/07/27 07:40:31;;;;;;;19.23;4.13;;;;;;;;;;3576670;40;20032;-62
2021/07/27 07:42:56;;;;;;;16.43;5.13;;;;;;;;;;3576622;40;20299;-63
2021/07/27 07:45:22;;;;;;;9.73;4.60;;;;;;;;;;3576038;40;20477;-62
2021/07/27 07:47:48;;;;;;;6.67;3.37;;;;;;;;;;3579310;40;20043;-62
2021/07/27 07:50:13;;;;;;;8.95;3.40;;;;;;;;;;3576887;40;20028;-62
2021/07/27 07:52:38;;;;;;;9.40;3.90;;;;;;;;;;3574979;40;20417;-62
2021/07/27 07:55:06;;;;;;;6.40;3.30;;;;;;;;;;3577557;40;20688;-62
2021/07/27 07:57:32;;;;;;;8.82;3.53;;;;;;;;;;3576606;40;20373;-62
2021/07/27 07:59:59;;;;;;;10.23;3.73;;;;;;;;;;3576634;40;20070;-61
2021/07/27 08:02:24;;;;;;;8.52;3.35;;;;;;;;;;3576317;40;20029;-62
2021/07/27 08:04:49;;;;;;;3.80;2.90;;;;;;;;;;3577844;40;20039;-62
2021/07/27 08:07:14;;;;;;;12.53;3.60;;;;;;;;;;3575884;40;20128;-62
2021/07/27 08:09:39;;;;;;;11.93;4.27;;;;;;;;;;3574267;40;20750;-62
2021/07/27 08:12:05;;;;;;;7.53;3.33;;;;;;;;;;3580181;40;20865;-62
2021/07/27 08:14:30;;;;;;;5.10;3.23;;;;;;;;;;3574282;40;20735;-62
2021/07/27 08:16:55;;;;;;;5.87;3.40;;;;;;;;;;3575830;40;20134;-62
2021/07/27 08:19:20;;;;;;;9.60;3.10;;;;;;;;;;3578059;40;20722;-64
2021/07/27 08:21:46;;;;;;;4.77;2.90;;;;;;;;;;3579189;40;20044;-62
2021/07/27 08:24:11;;;;;;;11.13;5.57;;;;;;;;;;3579677;40;20029;-62
2021/07/27 08:26:36;;;;;;;5.70;3.63;;;;;;;;;;3579621;40;20080;-62
2021/07/27 08:29:01;;;;;;;5.17;2.93;;;;;;;;;;3577053;40;20033;-62
2021/07/27 08:31:26;;;;;;;8.23;3.20;;;;;;;;;;3579728;40;20389;-62
2021/07/27 08:33:52;;;;;;;11.60;3.77;;;;;;;;;;3566925;40;20040;-62
2021/07/27 08:36:17;;;;;;;6.50;3.10;;;;;;;;;;3579038;40;20032;-63
2021/07/27 08:38:42;;;;;;;4.80;3.10;;;;;;;;;;3578035;40;20048;-63
2021/07/27 08:41:07;;;;;;;8.80;2.70;;;;;;;;;;3580243;40;20044;-62
2021/07/27 08:43:33;;;;;;;8.13;2.58;;;;;;;;;;3579375;40;20032;-63
2021/07/27 08:45:58;;;;;;;6.93;3.07;;;;;;;;;;3577245;40;20832;-63
2021/07/27 08:48:23;;;;;;;4.97;2.53;;;;;;;;;;3579539;40;20791;-63
2021/07/27 08:50:49;;;;;;;4.07;2.50;;;;;;;;;;3578476;40;20930;-63
2021/07/27 08:53:14;;;;;;;7.40;2.67;;;;;;;;;;3580771;40;20922;-63
2021/07/27 08:55:39;;;;;;;3.63;2.50;;;;;;;;;;3576040;40;20035;-63
2021/07/27 08:58:05;;;;;;;4.70;2.50;;;;;;;;;;3577849;40;20774;-63
2021/07/27 09:00:30;;;;;;;3.83;2.50;;;;;;;;;;3576782;40;20029;-63
2021/07/27 09:02:55;;;;;;;4.33;2.63;;;;;;;;;;3578228;40;20033;-62
2021/07/27 09:05:20;;;;;;;4.00;2.70;;;;;;;;;;3579010;40;20348;-63
2021/07/27 09:07:46;;;;;;;4.13;2.90;;;;;;;;;;3576415;40;20047;-63
2021/07/27 09:10:11;;;;;;;3.58;2.53;;;;;;;;;;3575755;40;20408;-63
2021/07/27 09:12:37;;;;;;;4.07;2.80;;;;;;;;;;3578424;40;20126;-63
2021/07/27 09:15:02;;;;;;;8.67;3.50;;;;;;;;;;3577813;40;20134;-63
2021/07/27 09:17:27;;;;;;;5.77;3.17;;;;;;;;;;3576392;40;20890;-62
2021/07/27 09:19:53;;;;;;;14.23;6.27;;;;;;;;;;3573926;40;20139;-63
2021/07/27 09:22:18;;;;;;;4.13;3.20;;;;;;;;;;3578504;40;20411;-63
2021/07/27 09:24:43;;;;;;;8.00;2.53;;;;;;;;;;3578931;40;20041;-63
2021/07/27 09:27:08;;;;;;;6.43;2.70;;;;;;;;;;3573760;40;20303;-63
2021/07/27 09:29:34;;;;;;;10.70;2.50;;;;;;;;;;3579573;40;20033;-63
2021/07/27 09:31:59;;;;;;;4.47;2.73;;;;;;;;;;3577736;40;20199;-63
2021/07/27 09:34:24;;;;;;;5.78;2.70;;;;;;;;;;3577466;40;20029;-62
2021/07/27 09:36:49;;;;;;;4.10;2.30;;;;;;;;;;3576735;40;20065;-62
2021/07/27 09:39:15;;;;;;;5.50;2.10;;;;;;;;;;3579785;40;20263;-62
2021/07/27 09:41:40;;;;;;;4.67;2.20;;;;;;;;;;3576103;40;20045;-62
2021/07/27 09:44:07;;;;;;;5.27;2.27;;;;;;;;;;3577350;40;20304;-62
2021/07/27 09:46:32;;;;;;;5.75;2.22;;;;;;;;;;3576611;40;20025;-63
2021/07/27 09:48:58;;;;;;;3.67;2.38;;;;;;;;;;3566834;40;20037;-63
2021/07/27 09:51:23;;;;;;;7.07;2.60;;;;;;;;;;3576013;40;20029;-62
2021/07/27 09:53:48;;;;;;;3.20;2.27;;;;;;;;;;3575108;40;20052;-62
2021/07/27 09:56:13;;;;;;;7.07;2.87;;;;;;;;;;3575911;40;20036;-63
2021/07/27 09:58:39;;;;;;;2.73;2.23;;;;;;;;;;3575038;40;20438;-60
2021/07/27 10:01:04;;;;;;;6.17;2.97;;;;;;;;;;3578101;40;20036;-60
2021/07/27 10:03:29;;;;;;;5.53;2.73;;;;;;;;;;3577467;40;20040;-60
2021/07/27 10:05:54;;;;;;;4.37;3.23;;;;;;;;;;3575878;40;20032;-59
2021/07/27 10:08:19;;;;;;;4.30;2.73;;;;;;;;;;3577839;40;20048;-60
2021/07/27 10:10:46;;;;;;;5.20;2.27;;;;;;;;;;3576100;40;20045;-60
2021/07/27 10:13:11;;;;;;;4.60;3.20;;;;;;;;;;3578061;40;20044;-60
2021/07/27 10:15:37;;;;;;;5.68;3.08;;;;;;;;;;3576383;40;20067;-61
2021/07/27 10:18:02;;;;;;;5.20;3.13;;;;;;;;;;3576010;40;20044;-61
2021/07/27 10:20:27;;;;;;;3.63;2.40;;;;;;;;;;3578100;40;20028;-61
2021/07/27 10:22:52;;;;;;;3.93;2.87;;;;;;;;;;3577347;40;20489;-61
2021/07/27 10:25:17;;;;;;;3.93;2.47;;;;;;;;;;3578495;40;20043;-61
2021/07/27 10:27:43;;;;;;;5.67;2.50;;;;;;;;;;3579153;40;20028;-61
2021/07/27 10:30:10;;;;;;;5.57;2.93;;;;;;;;;;3577218;40;20251;-61
2021/07/27 10:32:35;;;;;;;9.88;3.35;;;;;;;;;;3576186;40;20028;-61
2021/07/27 10:35:00;;;;;;;7.97;3.77;;;;;;;;;;3578892;40;20032;-61
2021/07/27 10:37:25;;;;;;;5.30;2.80;;;;;;;;;;3580274;40;20056;-60
2021/07/27 10:39:50;;;;;;;3.73;2.23;;;;;;;;;;3576291;40;20381;-60
2021/07/27 10:42:17;;;;;;;4.97;2.70;;;;;;;;;;3570870;40;20065;-60
2021/07/27 10:44:42;;;;;;;3.10;2.17;;;;;;;;;;3578540;40;20214;-60
2021/07/27 10:47:07;;;;;;;4.70;2.60;;;;;;;;;;3579207;40;20085;-59
2021/07/27 10:49:33;;;;;;;3.43;2.60;;;;;;;;;;3577325;40;20049;-60
2021/07/27 10:51:58;;;;;;;6.37;2.57;;;;;;;;;;3577632;40;20035;-59
2021/07/27 10:54:23;;;;;;;5.77;2.70;;;;;;;;;;3578557;40;20060;-59
2021/07/27 10:56:49;;;;;;;4.75;2.65;;;;;;;;;;3576372;40;20037;-60
2021/07/27 10:59:14;;;;;;;3.50;2.60;;;;;;;;;;3576535;40;20052;-60
2021/07/27 11:01:39;;;;;;;6.03;2.83;;;;;;;;;;3577483;40;20255;-60
2021/07/27 11:04:04;;;;;;;6.27;2.63;;;;;;;;;;3575364;40;20043;-60
2021/07/27 11:06:30;;;;;;;5.90;2.90;;;;;;;;;;3579072;40;20283;-60
2021/07/27 11:08:55;;;;;;;8.40;3.83;;;;;;;;;;3579363;40;20718;-60
2021/07/27 11:11:20;;;;;;;5.07;3.30;;;;;;;;;;3578735;40;20040;-59
2021/07/27 11:13:47;;;;;;;7.10;2.60;;;;;;;;;;3580525;40;20029;-59
2021/07/27 11:16:12;;;;;;;4.32;3.10;;;;;;;;;;3577258;40;20667;-60
2021/07/27 11:18:37;;;;;;;8.23;3.60;;;;;;;;;;3576433;40;20059;-60
2021/07/27 11:21:02;;;;;;;4.37;2.47;;;;;;;;;;3577901;40;20072;-60
2021/07/27 11:23:28;;;;;;;4.77;2.20;;;;;;;;;;3577795;40;20072;-60
2021/07/27 11:25:53;;;;;;;3.93;2.27;;;;;;;;;;3578474;40;20033;-60
2021/07/27 11:28:18;;;;;;;3.30;2.30;;;;;;;;;;3578893;40;20549;-60
2021/07/27 11:30:43;;;;;;;3.83;2.20;;;;;;;;;;3575574;40;20025;-60
2021/07/27 11:33:09;;;;;;;3.03;2.17;;;;;;;;;;3577783;40;20384;-60
2021/07/27 11:35:34;;;;;;;4.80;2.20;;;;;;;;;;3575547;40;20033;-60
2021/07/27 11:37:59;;;;;;;4.83;2.07;;;;;;;;;;3579295;40;20548;-60
2021/07/27 11:40:24;;;;;;;2.60;2.10;;;;;;;;;;3577991;40;20036;-59
2021/07/27 11:42:49;;;;;;;6.13;1.90;;;;;;;;;;3576152;40;20288;-59
2021/07/27 11:45:15;;;;;;;10.00;1.93;;;;;;;;;;3576414;40;20154;-60
2021/07/27 11:47:40;;;;;;;4.20;2.13;;;;;;;;;;3577816;40;20864;-60
2021/07/27 11:50:06;;;;;;;7.35;2.00;;;;;;;;;;3577944;40;20029;-60
2021/07/27 11:52:31;;;;;;;8.93;2.53;;;;;;;;;;3577376;40;20081;-60
2021/07/27 11:54:56;;;;;;;2.60;2.10;;;;;;;;;;3578399;40;20413;-62
2021/07/27 11:57:21;;;;;;;4.67;2.10;;;;;;;;;;3579555;40;20031;-60
2021/07/27 11:59:47;;;;;;;2.40;1.73;;;;;;;;;;3577931;40;20130;-60
2021/07/27 12:02:12;;;;;;;7.87;2.33;;;;;;;;;;3580423;40;20020;-61
2021/07/27 12:04:37;;;;;;;3.77;2.00;;;;;;;;;;3576151;40;20118;-60
2021/07/27 12:07:02;;;;;;;8.43;2.90;;;;;;;;;;3580753;40;20029;-63
2021/07/27 12:09:28;;;;;;;3.60;2.47;;;;;;;;;;3576756;40;20675;-62
2021/07/27 12:11:54;;;;;;;9.07;2.60;;;;;;;;;;3576617;40;20182;-63
2021/07/27 12:14:19;;;;;;;3.50;2.10;;;;;;;;;;3575764;40;20425;-62
2021/07/27 12:16:45;;;;;;;7.63;3.13;;;;;;;;;;3579876;40;20025;-62
2021/07/27 12:19:10;;;;;;;3.40;2.50;;;;;;;;;;3577665;40;20036;-63
2021/07/27 12:21:35;;;;;;;3.97;2.65;;;;;;;;;;3578680;40;20231;-62
2021/07/27 12:24:01;;;;;;;7.53;2.72;;;;;;;;;;3580880;40;20061;-62
2021/07/27 12:26:26;;;;;;;7.23;2.50;;;;;;;;;;3579936;40;20036;-63
2021/07/27 12:28:51;;;;;;;8.63;2.10;;;;;;;;;;3579952;40;20945;-63
2021/07/27 12:31:17;;;;;;;5.67;1.63;;;;;;;;;;3580275;40;20036;-62
2021/07/27 12:33:42;;;;;;;5.67;2.00;;;;;;;;;;3577620;40;20036;-62
2021/07/27 12:36:08;;;;;;;5.07;2.10;;;;;;;;;;3576241;40;20012;-62
2021/07/27 12:38:33;;;;;;;7.25;2.38;;;;;;;;;;3576011;40;20029;-63
2021/07/27 12:40:58;;;;;;;3.40;2.20;;;;;;;;;;3577911;40;20132;-63
2021/07/27 12:43:24;;;;;;;13.43;2.00;;;;;;;;;;3578415;40;20041;-62
2021/07/27 12:45:50;;;;;;;2.45;1.80;;;;;;;;;;3580051;40;20058;-62
2021/07/27 12:48:15;;;;;;;5.23;2.20;;;;;;;;;;3579511;40;20638;-62
2021/07/27 12:50:40;;;;;;;5.55;2.13;;;;;;;;;;3578762;40;20053;-63
2021/07/27 12:53:06;;;;;;;3.47;1.83;;;;;;;;;;3577488;40;20067;-63
2021/07/27 12:55:31;;;;;;;3.37;1.93;;;;;;;;;;3578857;40;20029;-62
2021/07/27 12:57:56;;;;;;;6.17;2.60;;;;;;;;;;3575874;40;20823;-61
2021/07/27 13:00:21;;;;;;;6.40;2.07;;;;;;;;;;3576756;40;20021;-61
2021/07/27 13:02:46;;;;;;;3.53;2.20;;;;;;;;;;3579847;40;20036;-61
2021/07/27 13:05:12;;;;;;;4.03;2.17;;;;;;;;;;3575046;40;20021;-61
2021/07/27 13:07:37;;;;;;;3.70;2.27;;;;;;;;;;3576648;40;20326;-61
2021/07/27 13:10:02;;;;;;;9.43;2.53;;;;;;;;;;3579010;40;20652;-62
2021/07/27 13:12:28;;;;;;;3.17;1.90;;;;;;;;;;3577289;40;20247;-60
2021/07/27 13:14:56;;;;;;;5.47;1.70;;;;;;;;;;3579361;40;20028;-62
2021/07/27 13:17:22;;;;;;;2.72;1.85;;;;;;;;;;3577088;40;20393;-62
2021/07/27 13:19:47;;;;;;;9.77;2.40;;;;;;;;;;3579594;40;20039;-61
2021/07/27 13:22:12;;;;;;;5.63;1.73;;;;;;;;;;3575943;40;20036;-62
2021/07/27 13:24:37;;;;;;;1.67;1.40;;;;;;;;;;3581497;40;20028;-61
2021/07/27 13:27:02;;;;;;;4.30;1.50;;;;;;;;;;3576420;40;20048;-62
2021/07/27 13:29:29;;;;;;;2.80;1.73;;;;;;;;;;3578973;40;20098;-61
2021/07/27 13:31:54;;;;;;;7.68;1.40;;;;;;;;;;3576182;40;20033;-61
2021/07/27 13:34:22;;;;;;;2.30;1.60;;;;;;;;;;3576716;40;20040;-62
2021/07/27 13:36:47;;;;;;;6.97;1.40;;;;;;;;;;3577556;40;20070;-61
2021/07/27 13:39:13;;;;;;;4.07;1.83;;;;;;;;;;3576230;40;20306;-62
2021/07/27 13:41:38;;;;;;;6.20;1.37;;;;;;;;;;3576622;40;20024;-62
2021/07/27 13:44:03;;;;;;;3.20;1.87;;;;;;;;;;3575737;40;20045;-62
2021/07/27 13:46:28;;;;;;;2.93;1.57;;;;;;;;;;3577422;40;20061;-61
2021/07/27 13:48:53;;;;;;;1.63;1.33;;;;;;;;;;3577127;40;20025;-61
2021/07/27 13:51:19;;;;;;;3.43;1.40;;;;;;;;;;3579053;40;20020;-61
2021/07/27 13:53:44;;;;;;;2.23;1.20;;;;;;;;;;3576432;40;20044;-62
2021/07/27 13:56:09;;;;;;;5.63;1.60;;;;;;;;;;3577115;40;20029;-62
2021/07/27 13:58:34;;;;;;;5.30;1.57;;;;;;;;;;3578798;40;20029;-62
2021/07/27 14:01:03;;;;;;;4.00;1.30;;;;;;;;;;3574858;40;20106;-61
2021/07/27 14:03:29;;;;;;;7.88;1.23;;;;;;;;;;3577006;40;20057;-61
2021/07/27 14:05:54;;;;;;;2.40;1.33;;;;;;;;;;3576611;40;20025;-61
2021/07/27 14:08:20;;;;;;;4.70;2.17;;;;;;;;;;3576846;40;20044;-60
2021/07/27 14:10:45;;;;;;;3.58;2.40;;;;;;;;;;3576545;40;20077;-61
2021/07/27 14:13:11;;;;;;;4.40;1.67;;;;;;;;;;3576922;40;20043;-61
2021/07/27 14:15:36;;;;;;;4.43;1.75;;;;;;;;;;3578150;40;20032;-61
2021/07/27 14:18:02;;;;;;;11.13;1.50;;;;;;;;;;3577453;40;20024;-61
2021/07/27 14:20:27;;;;;;;1.30;1.20;;;;;;;;;;3575222;40;20036;-61
2021/07/27 14:22:52;;;;;;;5.90;1.50;;;;;;;;;;3577147;40;20021;-61
2021/07/27 14:25:17;;;;;;;4.37;1.40;;;;;;;;;;3576622;40;20526;-62
2021/07/27 14:27:43;;;;;;;5.50;1.20;;;;;;;;;;3578343;40;20032;-61
2021/07/27 14:30:08;;;;;;;3.77;1.77;;;;;;;;;;3575671;40;20766;-61
2021/07/27 14:32:33;;;;;;;2.73;1.13;;;;;;;;;;3578099;40;20033;-61
2021/07/27 14:34:59;;;;;;;1.37;1.27;;;;;;;;;;3577604;40;20357;-60
2021/07/27 14:37:24;;;;;;;5.93;1.70;;;;;;;;;;3576825;40;20013;-60
2021/07/27 14:39:49;;;;;;;2.90;1.60;;;;;;;;;;3574525;40;20035;-60
2021/07/27 14:42:14;;;;;;;3.93;1.50;;;;;;;;;;3576984;40;20034;-61
2021/07/27 14:44:40;;;;;;;6.23;1.67;;;;;;;;;;3578875;40;20035;-61
2021/07/27 14:47:05;;;;;;;1.85;1.50;;;;;;;;;;3578418;40;20044;-61
2021/07/27 14:49:30;;;;;;;4.80;1.60;;;;;;;;;;3577355;40;20090;-61
2021/07/27 14:51:56;;;;;;;4.00;1.90;;;;;;;;;;3576513;40;20020;-60